Time;durP1;ratioP1;P1;durP2;ratioP2;P2;SDS_P1;SDS_P2;PMS_P1;PMS_P2;Temp;Humidity;BMP_temperature;BMP_pressure;BME280_temperature;BME280_humidity;BME280_pressure;Samples;Min_cycle;Max_cycle;Signal;HPM_P1;HPM_P2
2021/06/22 00:02:13;;;;;;;2.00;0.93;;;;;;;22.37;57.92;99339.03;10583955;28;20054;-71
2021/06/22 00:07:19;;;;;;;2.78;0.90;;;;;;;22.53;57.01;99359.88;10582464;28;20044;-71
2021/06/22 00:12:21;;;;;;;1.52;0.90;;;;;;;22.36;57.48;99363.28;10585314;28;20047;-71
2021/06/22 00:17:23;;;;;;;3.42;1.20;;;;;;;22.03;58.54;99377.84;10574059;28;20044;-71
2021/06/22 00:22:25;;;;;;;2.65;0.98;;;;;;;21.72;59.86;99390.41;10555529;28;20047;-71
2021/06/22 00:27:26;;;;;;;7.82;3.17;;;;;;;21.53;60.39;99385.84;10590593;28;20039;-71
2021/06/22 00:32:28;;;;;;;3.95;2.45;;;;;;;21.32;60.67;99393.91;10592507;28;20115;-72
2021/06/22 00:37:29;;;;;;;4.32;2.95;;;;;;;21.31;61.03;99398.41;10591292;28;20043;-71
2021/06/22 00:42:31;;;;;;;5.25;4.43;;;;;;;20.99;62.16;99386.94;10591110;28;20495;-71
2021/06/22 00:47:33;;;;;;;3.72;2.38;;;;;;;21.03;62.53;99396.34;10590639;28;20040;-71
2021/06/22 00:52:38;;;;;;;2.83;2.13;;;;;;;21.07;62.70;99412.03;10573476;28;20047;-71
2021/06/22 00:57:41;;;;;;;2.95;2.20;;;;;;;20.80;64.41;99430.34;10591024;28;20115;-71
2021/06/22 01:02:43;;;;;;;3.05;2.85;;;;;;;20.54;65.23;99446.75;10589879;28;20048;-71
2021/06/22 01:07:45;;;;;;;4.40;4.00;;;;;;;20.61;65.30;99450.59;10589660;28;20042;-70
2021/06/22 01:12:48;;;;;;;6.93;6.20;;;;;;;20.54;65.63;99449.41;10589795;28;20039;-71
2021/06/22 01:17:57;;;;;;;7.18;6.68;;;;;;;20.28;66.32;99448.84;10570397;28;20109;-70
2021/06/22 01:23:03;;;;;;;7.45;6.95;;;;;;;20.06;67.60;99443.56;10586592;28;20047;-71
2021/06/22 01:28:07;;;;;;;9.13;8.50;;;;;;;20.05;67.52;99460.50;10570073;28;20036;-71
2021/06/22 01:33:14;;;;;;;9.73;8.82;;;;;;;20.02;67.58;99488.28;10587373;28;20039;-71
2021/06/22 01:38:16;;;;;;;11.02;10.25;;;;;;;19.94;67.76;99501.38;10586798;28;20031;-71
2021/06/22 01:43:18;;;;;;;10.63;9.73;;;;;;;19.79;66.88;99513.25;10586861;28;20048;-71
2021/06/22 01:48:22;;;;;;;8.90;8.30;;;;;;;19.75;66.05;99541.16;10587275;28;20058;-72
2021/06/22 01:53:26;;;;;;;7.05;6.55;;;;;;;19.68;65.13;99547.91;10569658;28;20047;-71
2021/06/22 01:58:37;;;;;;;7.35;6.85;;;;;;;19.45;65.70;99537.16;10568516;28;20074;-71
2021/06/22 02:03:48;;;;;;;7.85;6.75;;;;;;;19.52;65.38;99546.41;10568407;28;20043;-71
2021/06/22 02:08:50;;;;;;;7.68;7.18;;;;;;;19.34;65.93;99547.78;10568569;28;20047;-70
2021/06/22 02:13:51;;;;;;;8.18;7.50;;;;;;;19.33;65.12;99551.41;10567047;28;20473;-70
2021/06/22 02:18:56;;;;;;;6.93;6.22;;;;;;;19.15;65.61;99551.00;10566267;28;20400;-71
2021/06/22 02:23:59;;;;;;;6.53;6.03;;;;;;;19.00;65.49;99558.31;10568264;28;20066;-71
2021/06/22 02:29:00;;;;;;;6.15;5.70;;;;;;;19.08;66.06;99561.28;10566081;28;20075;-71
2021/06/22 02:34:02;;;;;;;7.07;6.50;;;;;;;19.12;65.02;99567.19;10584544;28;20408;-71
2021/06/22 02:39:05;;;;;;;7.18;6.68;;;;;;;18.79;64.76;99571.38;10566563;28;20501;-70
2021/06/22 02:44:16;;;;;;;6.15;5.65;;;;;;;18.55;64.92;99597.09;10566873;28;20096;-71
2021/06/22 02:49:21;;;;;;;6.00;5.60;;;;;;;18.45;64.97;99622.66;10567760;28;20565;-70
2021/06/22 02:54:25;;;;;;;3.83;3.55;;;;;;;18.33;64.34;99625.25;10568180;28;20055;-72
2021/06/22 02:59:27;;;;;;;2.97;2.50;;;;;;;18.25;64.19;99610.78;10567025;28;20423;-70
2021/06/22 03:04:31;;;;;;;2.78;2.58;;;;;;;18.16;66.02;99577.69;10586709;28;20408;-71
2021/06/22 03:09:33;;;;;;;3.63;3.33;;;;;;;17.92;67.58;99577.56;10550286;28;20035;-71
2021/06/22 03:14:37;;;;;;;3.80;3.50;;;;;;;17.65;68.88;99602.41;10584574;28;20040;-71
2021/06/22 03:19:54;;;;;;;4.18;3.75;;;;;;;17.56;69.26;99618.97;10584324;28;20092;-71
2021/06/22 03:24:59;;;;;;;3.35;3.13;;;;;;;17.89;68.60;99647.78;10566013;28;20039;-72
2021/06/22 03:30:01;;;;;;;3.60;3.13;;;;;;;17.88;69.64;99651.41;10583249;28;20036;-72
2021/06/22 03:35:05;;;;;;;3.50;3.20;;;;;;;17.83;70.09;99628.72;10566721;28;20040;-73
2021/06/22 03:40:08;;;;;;;4.30;3.90;;;;;;;17.47;71.07;99627.56;10564927;28;20127;-72
2021/06/22 03:45:13;;;;;;;3.88;3.58;;;;;;;17.46;71.29;99649.78;10550765;28;20040;-71
2021/06/22 03:50:18;;;;;;;4.22;3.88;;;;;;;17.69;70.98;99684.59;10573522;28;20096;-70
2021/06/22 03:55:27;;;;;;;4.25;3.88;;;;;;;17.46;72.80;99697.59;10573762;28;20039;-72
2021/06/22 04:00:58;;;;;;;3.92;3.53;;;;;;;17.77;70.56;99687.63;10560747;28;20057;-71
2021/06/22 04:06:06;;;;;;;4.78;4.07;;;;;;;17.49;73.64;99662.88;10573614;28;20043;-71
2021/06/22 04:11:08;;;;;;;4.30;4.00;;;;;;;17.52;73.27;99689.22;10591386;28;20039;-70
2021/06/22 04:16:12;;;;;;;6.55;4.47;;;;;;;17.50;73.63;99708.91;10573269;28;20032;-70
2021/06/22 04:21:17;;;;;;;5.72;5.22;;;;;;;17.44;74.94;99686.22;10571845;28;20047;-71
2021/06/22 04:26:20;;;;;;;6.50;5.90;;;;;;;17.39;74.52;99645.81;10571693;28;20075;-70
2021/06/22 04:31:22;;;;;;;6.55;6.05;;;;;;;16.76;74.47;99628.66;10590832;28;20043;-70
2021/06/22 04:36:24;;;;;;;7.97;7.38;;;;;;;16.71;75.44;99651.94;10571702;28;20058;-70
2021/06/22 04:41:26;;;;;;;7.30;6.80;;;;;;;16.75;75.55;99693.31;10571554;28;20043;-70
2021/06/22 04:46:27;;;;;;;9.27;8.50;;;;;;;16.80;76.08;99719.56;10588474;28;20397;-71
2021/06/22 04:51:30;;;;;;;8.15;7.53;;;;;;;16.90;74.26;99736.63;10569073;28;20390;-71
2021/06/22 04:56:31;;;;;;;9.90;9.10;;;;;;;16.87;75.16;99740.34;10586632;28;20489;-71
2021/06/22 05:01:33;;;;;;;8.90;8.20;;;;;;;16.59;74.93;99762.34;10586892;28;20386;-71
2021/06/22 05:06:35;;;;;;;8.55;7.95;;;;;;;16.56;75.04;99765.22;10569160;28;20039;-69
2021/06/22 05:11:40;;;;;;;8.85;8.25;;;;;;;16.44;75.80;99750.03;10588247;28;20050;-70
2021/06/22 05:16:41;;;;;;;7.30;6.85;;;;;;;16.47;75.88;99741.03;10588357;28;20446;-70
2021/06/22 05:21:44;;;;;;;6.30;5.80;;;;;;;16.29;76.67;99727.94;10587576;28;20043;-70
2021/06/22 05:26:45;;;;;;;6.03;5.53;;;;;;;16.26;76.38;99709.56;10568735;28;20040;-70
2021/06/22 05:31:47;;;;;;;5.03;4.72;;;;;;;16.39;75.68;99707.88;10586588;28;20047;-70
2021/06/22 05:36:48;;;;;;;4.65;4.25;;;;;;;16.36;76.34;99688.63;10586289;28;20148;-69
2021/06/22 05:41:50;;;;;;;3.88;3.63;;;;;;;15.97;77.57;99662.72;10568084;28;20093;-70
2021/06/22 05:46:52;;;;;;;5.10;4.70;;;;;;;16.03;78.23;99676.47;10586528;28;20036;-71
2021/06/22 05:51:53;;;;;;;5.15;4.75;;;;;;;15.95;78.11;99659.31;10588478;28;20044;-71
2021/06/22 05:56:55;;;;;;;5.18;4.68;;;;;;;15.95;78.56;99669.94;10586031;28;20043;-70
2021/06/22 06:01:57;;;;;;;5.25;4.85;;;;;;;16.28;78.71;99673.19;10586711;28;20035;-70
2021/06/22 06:06:58;;;;;;;5.85;5.40;;;;;;;16.38;78.61;99676.16;10567263;28;20047;-70
2021/06/22 06:12:00;;;;;;;5.70;5.30;;;;;;;16.43;78.23;99675.88;10565860;28;20048;-70
2021/06/22 06:17:02;;;;;;;5.60;5.22;;;;;;;16.55;76.61;99685.69;10585478;28;20050;-71
2021/06/22 06:22:04;;;;;;;6.47;6.07;;;;;;;16.72;76.76;99712.06;10584597;28;20489;-71
2021/06/22 06:27:11;;;;;;;6.60;6.20;;;;;;;17.01;76.57;99707.59;10549623;28;20546;-70
2021/06/22 06:32:13;;;;;;;;;;;;;;;16.77;76.18;99725.91;10585708;28;20054;-70
2021/06/22 06:37:14;;;;;;;4.40;4.10;;;;;;;16.81;76.26;99745.16;10584033;28;20018;-70
2021/06/22 06:42:16;;;;;;;4.75;4.32;;;;;;;16.96;75.29;99754.84;10584919;28;20043;-71
2021/06/22 06:47:18;;;;;;;3.92;3.63;;;;;;;16.57;76.39;99758.09;10583872;28;20042;-71
2021/06/22 06:52:20;;;;;;;4.15;3.85;;;;;;;16.57;76.96;99763.41;10584918;28;20127;-71
2021/06/22 06:57:22;;;;;;;4.20;3.90;;;;;;;16.67;77.76;99774.31;10565282;28;20040;-71
2021/06/22 07:02:23;;;;;;;3.83;3.63;;;;;;;16.85;76.82;99762.59;10583528;28;20043;-70
2021/06/22 07:07:25;;;;;;;3.75;3.47;;;;;;;16.87;73.99;99764.22;10565122;28;20044;-70
2021/06/22 07:12:26;;;;;;;3.53;3.33;;;;;;;16.67;76.66;99759.25;10583956;28;20039;-72
2021/06/22 07:17:28;;;;;;;3.88;3.63;;;;;;;16.87;75.00;99760.72;10565712;28;20063;-71
2021/06/22 07:22:30;;;;;;;4.40;4.10;;;;;;;16.84;74.76;99756.44;10583092;28;20480;-72
2021/06/22 07:27:32;;;;;;;3.63;3.42;;;;;;;16.86;75.16;99748.38;10565466;28;20047;-73
2021/06/22 07:32:33;;;;;;;4.13;3.83;;;;;;;16.77;76.07;99743.63;10566460;28;20044;-72
2021/06/22 07:37:35;;;;;;;4.70;4.28;;;;;;;16.81;74.93;99746.00;10583814;28;20067;-72
2021/06/22 07:42:37;;;;;;;4.63;4.32;;;;;;;16.61;76.00;99747.22;10584367;28;20127;-72
2021/06/22 07:47:43;;;;;;;5.57;5.07;;;;;;;16.57;77.63;99764.25;10565186;28;20040;-73
2021/06/22 07:52:44;;;;;;;6.45;5.88;;;;;;;16.78;76.94;99771.91;10566555;28;20116;-72
2021/06/22 07:57:49;;;;;;;6.70;5.63;;;;;;;16.72;76.97;99775.78;10584766;28;20040;-72
2021/06/22 08:02:51;;;;;;;6.53;6.03;;;;;;;16.67;77.15;99774.31;10583663;28;20051;-72
2021/06/22 08:07:53;;;;;;;6.63;6.22;;;;;;;16.81;76.68;99785.81;10563976;28;20070;-72
2021/06/22 08:12:54;;;;;;;7.05;6.65;;;;;;;17.08;75.35;99777.94;10583263;28;20061;-72
2021/06/22 08:17:56;;;;;;;6.25;5.75;;;;;;;16.93;76.00;99781.56;10583887;28;20401;-72
2021/06/22 08:22:59;;;;;;;6.60;6.10;;;;;;;17.18;75.79;99785.31;10565061;28;20079;-72
2021/06/22 08:28:01;;;;;;;7.13;6.60;;;;;;;17.27;74.05;99790.09;10565815;28;20058;-71
2021/06/22 08:33:04;;;;;;;11.45;8.13;;;;;;;16.84;76.15;99784.78;10569298;28;20092;-71
2021/06/22 08:38:09;;;;;;;10.10;9.43;;;;;;;16.70;77.11;99788.25;10572109;28;20157;-72
2021/06/22 08:43:13;;;;;;;10.52;9.73;;;;;;;16.92;76.62;99805.56;10589888;28;20048;-73
2021/06/22 08:48:15;;;;;;;9.82;9.07;;;;;;;16.90;76.05;99814.47;10589207;28;20113;-72
2021/06/22 08:53:17;;;;;;;11.98;11.23;;;;;;;16.61;76.70;99818.00;10589760;28;20048;-72
2021/06/22 08:58:19;;;;;;;12.25;11.35;;;;;;;16.80;76.89;99817.78;10571203;28;20092;-72
2021/06/22 09:03:24;;;;;;;13.70;12.32;;;;;;;16.81;77.44;99814.16;10571055;28;20154;-72
2021/06/22 09:08:32;;;;;;;16.50;15.10;;;;;;;16.53;78.41;99815.81;10570929;28;20493;-73
2021/06/22 09:13:35;;;;;;;14.38;13.38;;;;;;;16.87;76.45;99809.34;10571192;28;20420;-73
2021/06/22 09:18:42;;;;;;;15.63;14.63;;;;;;;16.74;77.20;99821.66;10589616;28;20108;-73
2021/06/22 09:23:46;;;;;;;14.93;13.82;;;;;;;16.81;76.02;99814.16;10590552;28;20061;-73
2021/06/22 09:28:50;;;;;;;15.57;14.18;;;;;;;16.59;77.41;99827.84;10590113;28;20043;-73
2021/06/22 09:33:54;;;;;;;16.65;15.43;;;;;;;16.76;76.90;99825.06;10590912;28;20436;-74
2021/06/22 09:39:07;;;;;;;14.45;13.45;;;;;;;16.98;75.59;99835.22;10590796;28;20067;-73
2021/06/22 09:44:17;;;;;;;16.27;14.93;;;;;;;16.92;76.40;99845.38;10572494;28;20524;-73
2021/06/22 09:49:24;;;;;;;16.55;15.35;;;;;;;17.02;75.41;99849.19;10590176;28;20035;-73
2021/06/22 09:54:50;;;;;;;16.67;15.57;;;;;;;16.92;75.97;99864.81;10589270;28;20082;-73
2021/06/22 10:00:05;;;;;;;16.58;15.48;;;;;;;16.80;76.17;99854.94;10571108;28;20043;-74
2021/06/22 10:05:15;;;;;;;17.83;16.52;;;;;;;16.93;75.66;99853.25;10588914;28;20417;-74
2021/06/22 10:10:33;;;;;;;16.03;14.93;;;;;;;16.97;76.31;99856.59;10589619;28;20050;-73
2021/06/22 10:15:35;;;;;;;15.30;14.18;;;;;;;17.03;76.10;99872.97;10588717;28;20032;-74
2021/06/22 10:20:38;;;;;;;19.60;18.13;;;;;;;16.92;76.45;99866.63;10587992;28;20047;-73
2021/06/22 10:25:40;;;;;;;16.00;14.70;;;;;;;17.14;75.57;99859.91;10569489;28;20032;-73
2021/06/22 10:30:42;;;;;;;16.05;14.95;;;;;;;17.15;76.08;99853.63;10568742;28;20054;-72
2021/06/22 10:35:45;;;;;;;14.73;13.73;;;;;;;17.21;75.75;99859.50;10567538;28;20046;-73
2021/06/22 10:40:54;;;;;;;14.63;13.55;;;;;;;17.12;74.66;99856.47;10586228;28;20454;-73
2021/06/22 10:46:02;;;;;;;13.75;12.65;;;;;;;17.27;75.34;99867.13;10586816;28;20047;-74
2021/06/22 10:51:30;;;;;;;13.95;12.88;;;;;;;17.25;75.53;99876.97;10569007;28;20366;-72
2021/06/22 10:56:32;;;;;;;14.25;13.30;;;;;;;17.27;75.52;99872.44;10569266;28;20043;-73
2021/06/22 11:01:50;;;;;;;13.45;12.50;;;;;;;17.13;75.24;99874.16;10586885;28;20537;-73
2021/06/22 11:07:07;;;;;;;11.70;10.80;;;;;;;17.15;75.22;99876.69;10587879;28;20097;-74
2021/06/22 11:12:18;;;;;;;12.25;11.35;;;;;;;17.21;75.47;99881.63;10588051;28;20229;-74
2021/06/22 11:17:42;;;;;;;12.77;11.82;;;;;;;17.39;74.95;99880.47;10569338;28;20051;-73
2021/06/22 11:23:10;;;;;;;12.68;11.68;;;;;;;17.61;73.16;99884.44;10570828;28;20055;-73
2021/06/22 11:28:13;;;;;;;12.73;11.80;;;;;;;17.71;73.44;99890.91;10576394;28;20039;-74
2021/06/22 11:33:44;;;;;;;13.30;12.30;;;;;;;17.91;72.92;99887.00;10586766;28;20049;-73
2021/06/22 11:39:08;;;;;;;13.98;12.77;;;;;;;17.74;72.39;99889.88;10587449;28;20048;-73
2021/06/22 11:44:10;;;;;;;12.77;11.38;;;;;;;17.76;73.55;99878.22;10589191;28;20039;-74
2021/06/22 11:49:11;;;;;;;11.90;11.02;;;;;;;17.97;72.59;99888.41;10568832;28;20066;-74
2021/06/22 11:54:19;;;;;;;11.90;11.05;;;;;;;17.89;73.48;99888.91;10586162;28;20043;-73
2021/06/22 11:59:20;;;;;;;12.63;11.65;;;;;;;18.05;71.08;99888.75;10568146;28;20044;-72
2021/06/22 12:04:24;;;;;;;12.52;11.43;;;;;;;17.90;72.49;99885.28;10566841;28;20402;-73
2021/06/22 12:09:27;;;;;;;12.10;11.00;;;;;;;17.65;73.52;99897.44;10592912;28;20443;-74
2021/06/22 12:14:29;;;;;;;11.50;10.60;;;;;;;17.50;73.43;99893.09;10593881;28;20043;-74
2021/06/22 12:19:30;;;;;;;12.10;11.20;;;;;;;17.52;73.53;99888.53;10575374;28;20082;-72
2021/06/22 12:24:32;;;;;;;12.68;11.50;;;;;;;17.40;75.85;99889.31;10593770;28;20503;-74
2021/06/22 12:29:34;;;;;;;12.23;11.20;;;;;;;17.55;74.14;99888.34;10556907;28;20047;-73
2021/06/22 12:34:37;;;;;;;11.98;10.88;;;;;;;17.82;72.67;99888.44;10592707;28;20043;-73
2021/06/22 12:39:41;;;;;;;11.35;10.45;;;;;;;18.46;71.45;99886.06;10591996;28;20046;-75
2021/06/22 12:44:42;;;;;;;9.88;9.13;;;;;;;18.98;68.52;99884.34;10591360;28;20412;-74
2021/06/22 12:49:45;;;;;;;10.85;9.90;;;;;;;19.25;67.37;99886.91;10590624;28;20039;-74
2021/06/22 12:54:50;;;;;;;11.27;10.40;;;;;;;18.63;68.98;99906.19;10591063;28;20043;-75
2021/06/22 12:59:52;;;;;;;12.10;11.15;;;;;;;18.51;69.44;99897.25;10590529;28;20069;-74
2021/06/22 13:04:54;;;;;;;13.02;12.02;;;;;;;18.46;69.75;99894.03;10555538;28;20623;-75
2021/06/22 13:09:57;;;;;;;11.55;10.75;;;;;;;18.54;69.28;99899.69;10589836;28;20118;-74
2021/06/22 13:14:58;;;;;;;10.18;9.45;;;;;;;18.42;69.59;99895.19;10571358;28;20389;-75
2021/06/22 13:20:05;;;;;;;10.60;9.57;;;;;;;18.52;69.17;99895.44;10590071;28;20044;-74
2021/06/22 13:25:28;;;;;;;11.25;10.27;;;;;;;18.43;68.99;99904.88;10590863;28;20040;-74
2021/06/22 13:30:32;;;;;;;11.13;9.88;;;;;;;18.57;68.35;99901.28;10590014;28;20039;-75
2021/06/22 13:35:39;;;;;;;10.50;9.57;;;;;;;18.90;67.16;99900.84;10572761;28;20044;-74
2021/06/22 13:40:51;;;;;;;10.52;9.70;;;;;;;18.96;67.41;99900.44;10589804;28;20039;-73
2021/06/22 13:45:54;;;;;;;8.93;8.23;;;;;;;18.97;67.69;99910.13;10570694;28;20075;-75
2021/06/22 13:51:08;;;;;;;9.40;8.70;;;;;;;18.83;67.69;99918.22;10589825;28;20451;-75
2021/06/22 13:56:12;;;;;;;9.95;9.20;;;;;;;18.71;68.38;99921.69;10589272;28;20049;-74
2021/06/22 14:01:16;;;;;;;8.98;8.27;;;;;;;18.49;69.46;99924.91;10592119;28;20040;-74
2021/06/22 14:06:17;;;;;;;8.20;7.60;;;;;;;18.56;69.21;99931.53;10573377;28;20046;-75
2021/06/22 14:11:21;;;;;;;8.80;8.20;;;;;;;18.49;68.63;99927.56;10590896;28;20047;-72
2021/06/22 14:16:23;;;;;;;7.13;6.53;;;;;;;18.52;69.46;99935.34;10589359;28;20043;-73
2021/06/22 14:21:25;;;;;;;7.53;6.93;;;;;;;18.66;68.18;99937.94;10588315;28;20044;-73
2021/06/22 14:26:27;;;;;;;6.93;6.45;;;;;;;18.74;68.37;99934.81;10587719;28;20039;-74
2021/06/22 14:31:34;;;;;;;6.80;6.22;;;;;;;18.76;67.72;99943.53;10585361;28;20047;-74
2021/06/22 14:36:36;;;;;;;7.20;6.70;;;;;;;18.24;68.54;99945.16;10567506;28;20039;-76
2021/06/22 14:41:37;;;;;;;7.47;6.97;;;;;;;18.22;70.29;99938.22;10586352;28;20065;-74
2021/06/22 14:46:39;;;;;;;7.85;7.35;;;;;;;18.14;69.31;99941.34;10587147;28;20078;-75
2021/06/22 14:51:41;;;;;;;7.22;6.70;;;;;;;18.38;69.14;99953.09;10570332;28;20042;-75
2021/06/22 14:56:42;;;;;;;8.43;7.82;;;;;;;18.44;68.71;99957.16;10587917;28;20047;-75
2021/06/22 15:01:44;;;;;;;9.20;8.43;;;;;;;18.54;67.74;99960.91;10589328;28;20050;-75
2021/06/22 15:06:46;;;;;;;9.00;8.43;;;;;;;18.49;68.71;99957.69;10586841;28;20043;-76
2021/06/22 15:11:48;;;;;;;8.85;8.05;;;;;;;18.23;68.57;99963.84;10569419;28;20554;-74
2021/06/22 15:16:50;;;;;;;8.05;7.47;;;;;;;18.41;68.73;99960.00;10588581;28;20119;-76
2021/06/22 15:21:52;;;;;;;9.07;8.57;;;;;;;18.56;67.44;99972.31;10588294;28;20036;-74
2021/06/22 15:26:53;;;;;;;8.65;7.95;;;;;;;18.69;67.34;99976.84;10569922;28;20408;-74
2021/06/22 15:31:56;;;;;;;8.35;7.80;;;;;;;18.57;68.27;99979.34;10587469;28;20493;-75
2021/06/22 15:36:58;;;;;;;7.30;6.85;;;;;;;18.63;67.81;99972.75;10570998;28;20048;-74
2021/06/22 15:42:00;;;;;;;10.55;9.75;;;;;;;18.43;68.44;99968.75;10591805;28;20043;-74
2021/06/22 15:47:01;;;;;;;8.68;8.07;;;;;;;18.74;66.80;99964.09;10597285;28;20039;-74
2021/06/22 15:52:04;;;;;;;8.02;7.53;;;;;;;18.92;66.75;99965.53;10597755;28;20043;-74
2021/06/22 15:57:06;;;;;;;7.28;6.80;;;;;;;19.23;64.99;99958.97;10596961;28;20028;-74
2021/06/22 16:02:08;;;;;;;7.43;6.93;;;;;;;19.04;65.89;99958.53;10597182;28;20393;-73
2021/06/22 16:07:13;;;;;;;6.38;5.97;;;;;;;19.02;66.23;99953.28;10578247;28;20162;-74
2021/06/22 16:12:14;;;;;;;6.53;6.03;;;;;;;19.15;65.77;99953.31;10596350;28;20044;-74
2021/06/22 16:17:17;;;;;;;6.65;6.22;;;;;;;19.07;67.01;99948.50;10560088;28;20051;-75
2021/06/22 16:22:19;;;;;;;6.30;5.90;;;;;;;19.34;66.33;99955.53;10595690;28;20515;-74
2021/06/22 16:27:23;;;;;;;6.85;6.47;;;;;;;19.43;65.30;99954.91;10575949;28;20036;-75
2021/06/22 16:32:24;;;;;;;7.45;6.93;;;;;;;19.38;64.77;99957.03;10593317;28;20036;-73
2021/06/22 16:37:26;;;;;;;5.95;5.65;;;;;;;19.39;64.98;99969.44;10594629;28;20042;-74
2021/06/22 16:42:27;;;;;;;6.53;6.22;;;;;;;19.26;66.12;99980.06;10574306;28;20040;-72
2021/06/22 16:47:29;;;;;;;6.18;5.78;;;;;;;19.17;66.79;99980.72;10592508;28;20046;-73
2021/06/22 16:52:31;;;;;;;6.05;5.65;;;;;;;19.31;66.39;99977.09;10574445;28;20043;-73
2021/06/22 16:57:32;;;;;;;6.55;5.95;;;;;;;19.17;66.46;99967.38;10592245;28;20043;-72
2021/06/22 17:02:34;;;;;;;6.60;6.20;;;;;;;19.28;66.70;99971.97;10592723;28;20489;-72
2021/06/22 17:07:36;;;;;;;5.78;5.40;;;;;;;19.42;65.97;99983.38;10592339;28;20447;-73
2021/06/22 17:12:38;;;;;;;5.88;5.47;;;;;;;19.67;64.25;99981.72;10574643;28;20036;-74
2021/06/22 17:17:40;;;;;;;6.00;5.57;;;;;;;19.25;66.17;99981.00;10590475;28;20394;-73
2021/06/22 17:22:44;;;;;;;5.32;5.03;;;;;;;19.19;66.62;99970.78;10573398;28;20043;-73
2021/06/22 17:27:46;;;;;;;6.45;6.05;;;;;;;19.23;66.93;99982.94;10589208;28;20043;-73
2021/06/22 17:32:48;;;;;;;5.70;5.30;;;;;;;19.44;65.21;99977.09;10571075;28;20118;-73
2021/06/22 17:37:50;;;;;;;6.68;6.00;;;;;;;19.26;66.11;99972.09;10590309;28;20377;-74
2021/06/22 17:42:52;;;;;;;5.88;5.57;;;;;;;19.25;66.13;99978.34;10589244;28;20458;-73
2021/06/22 17:47:58;;;;;;;5.85;5.35;;;;;;;19.53;64.81;99977.31;10587784;28;20039;-73
2021/06/22 17:52:59;;;;;;;5.10;4.80;;;;;;;19.20;66.55;99968.97;10590668;28;20047;-73
2021/06/22 17:58:04;;;;;;;5.40;5.10;;;;;;;19.12;66.86;99983.69;10590939;28;20040;-73
2021/06/22 18:03:07;;;;;;;4.55;4.32;;;;;;;19.37;65.60;99987.31;10587875;28;20047;-74
2021/06/22 18:08:09;;;;;;;4.95;4.32;;;;;;;19.23;66.18;99985.59;10569869;28;20078;-73
2021/06/22 18:13:11;;;;;;;5.93;5.57;;;;;;;18.92;67.15;99978.84;10571085;28;20039;-73
2021/06/22 18:18:13;;;;;;;4.90;4.50;;;;;;;18.83;67.78;99982.13;10586880;28;20104;-73
2021/06/22 18:23:14;;;;;;;5.57;5.22;;;;;;;19.22;66.34;99991.91;10589066;28;20139;-73
2021/06/22 18:28:17;;;;;;;6.03;5.45;;;;;;;18.94;68.08;100000.03;10549204;28;20040;-74
2021/06/22 18:33:19;;;;;;;5.88;5.47;;;;;;;19.25;66.37;99996.16;10549616;28;20044;-73
2021/06/22 18:38:21;;;;;;;5.55;5.25;;;;;;;18.96;67.71;100006.97;10547506;28;20032;-73
2021/06/22 18:43:22;;;;;;;5.68;5.18;;;;;;;19.21;66.68;100011.50;10530024;28;20093;-72
2021/06/22 18:48:24;;;;;;;5.85;5.10;;;;;;;19.12;67.40;100030.75;10548811;28;20040;-73
2021/06/22 18:53:26;;;;;;;5.05;4.68;;;;;;;18.91;68.17;100035.75;10549055;28;20093;-73
2021/06/22 18:58:28;;;;;;;5.00;4.55;;;;;;;18.92;68.18;100049.91;10548201;28;20485;-74
2021/06/22 19:03:30;;;;;;;4.90;4.47;;;;;;;18.77;68.66;100049.09;10529406;28;20475;-73
2021/06/22 19:08:32;;;;;;;4.93;4.70;;;;;;;18.88;68.48;100049.25;10546656;28;20061;-74
2021/06/22 19:13:35;;;;;;;4.68;4.35;;;;;;;18.94;67.61;100055.97;10546996;28;20119;-73
2021/06/22 19:18:37;;;;;;;5.45;5.03;;;;;;;18.67;68.82;100059.44;10528301;28;20394;-73
2021/06/22 19:23:39;;;;;;;5.05;4.75;;;;;;;18.62;69.22;100054.44;10545982;28;20044;-74
2021/06/22 19:28:41;;;;;;;5.25;4.85;;;;;;;18.78;68.56;100062.31;10546418;28;20047;-73
2021/06/22 19:33:43;;;;;;;5.47;4.40;;;;;;;18.80;68.54;100065.72;10547054;28;20059;-74
2021/06/22 19:38:46;;;;;;;4.95;4.55;;;;;;;18.67;69.06;100057.66;10545100;28;20044;-73
2021/06/22 19:43:52;;;;;;;5.00;4.28;;;;;;;18.73;69.28;100066.25;10545583;28;20054;-73
2021/06/22 19:48:54;;;;;;;;;;;;;;;18.57;69.91;100059.19;10546938;28;20062;-75
2021/06/22 19:53:56;;;;;;;4.82;4.53;;;;;;;18.46;70.13;100056.41;10528161;28;19920;-74
2021/06/22 19:58:58;;;;;;;5.38;3.90;;;;;;;18.56;69.99;100060.16;10545707;28;20028;-73
2021/06/22 20:04:01;;;;;;;6.13;4.68;;;;;;;18.86;68.17;100061.81;10544888;28;20048;-73
2021/06/22 20:09:04;;;;;;;5.22;4.18;;;;;;;18.70;68.76;100069.09;10545287;28;20047;-73
2021/06/22 20:14:05;;;;;;;4.38;3.97;;;;;;;18.74;68.40;100067.94;10543961;28;20405;-73
2021/06/22 20:19:07;;;;;;;3.95;3.70;;;;;;;18.70;69.07;100077.09;10546594;28;20071;-74
2021/06/22 20:24:09;;;;;;;7.18;3.65;;;;;;;18.53;69.18;100063.00;10546159;28;20101;-73
2021/06/22 20:29:11;;;;;;;4.28;3.85;;;;;;;18.31;70.54;100060.00;10549585;28;20064;-73
2021/06/22 20:34:12;;;;;;;3.42;3.13;;;;;;;18.32;70.81;100064.38;10553415;28;20055;-75
2021/06/22 20:39:15;;;;;;;3.50;3.20;;;;;;;18.34;70.62;100081.13;10554340;28;20040;-73
2021/06/22 20:44:16;;;;;;;4.00;3.55;;;;;;;18.61;70.17;100075.84;10534809;28;20056;-73
2021/06/22 20:49:20;;;;;;;4.13;3.75;;;;;;;18.45;70.13;100075.94;10551943;28;20059;-73
2021/06/22 20:54:21;;;;;;;5.88;3.90;;;;;;;18.85;68.71;100081.41;10551630;28;20048;-73
2021/06/22 20:59:23;;;;;;;4.70;4.30;;;;;;;18.81;68.94;100099.38;10552322;28;20214;-73
2021/06/22 21:04:25;;;;;;;3.15;2.83;;;;;;;18.60;69.92;100112.25;10552559;28;20489;-73
2021/06/22 21:09:27;;;;;;;3.75;3.35;;;;;;;18.45;70.99;100113.22;10550739;28;20036;-72
2021/06/22 21:14:28;;;;;;;5.40;4.43;;;;;;;18.58;69.48;100122.13;10531735;28;20052;-74
2021/06/22 21:19:30;;;;;;;4.20;3.80;;;;;;;18.65;70.27;100125.28;10549881;28;20043;-74
2021/06/22 21:24:32;;;;;;;4.65;4.32;;;;;;;18.36;70.11;100122.63;10548104;28;20048;-73
2021/06/22 21:29:34;;;;;;;3.55;3.25;;;;;;;18.31;70.45;100119.41;10545637;28;20513;-72
2021/06/22 21:34:35;;;;;;;3.55;3.17;;;;;;;18.52;69.71;100135.84;10547138;28;20051;-72
2021/06/22 21:39:37;;;;;;;4.25;3.47;;;;;;;18.54;70.15;100131.25;10546486;28;20051;-72
2021/06/22 21:44:39;;;;;;;4.00;3.70;;;;;;;18.39;69.73;100127.78;10528295;28;20097;-72
2021/06/22 21:49:41;;;;;;;4.80;3.67;;;;;;;18.57;69.30;100122.25;10545967;28;20331;-72
2021/06/22 21:54:43;;;;;;;4.05;3.75;;;;;;;18.76;68.87;100140.59;10545226;28;20043;-72
2021/06/22 21:59:44;;;;;;;5.82;3.97;;;;;;;18.66;69.60;100134.97;10542715;28;20177;-72
2021/06/22 22:04:46;;;;;;;4.03;3.65;;;;;;;18.53;69.48;100139.34;10543983;28;20048;-72
2021/06/22 22:09:48;;;;;;;3.58;3.28;;;;;;;18.86;68.40;100150.56;10544341;28;20405;-72
2021/06/22 22:14:49;;;;;;;3.72;3.42;;;;;;;18.93;68.40;100148.34;10544689;28;20489;-72
2021/06/22 22:19:51;;;;;;;6.88;4.05;;;;;;;18.96;68.01;100158.81;10525389;28;20043;-72
2021/06/22 22:24:52;;;;;;;4.28;3.85;;;;;;;18.69;68.55;100161.44;10525724;28;20048;-72
2021/06/22 22:29:54;;;;;;;5.38;3.88;;;;;;;18.75;68.65;100170.84;10542342;28;20071;-73
2021/06/22 22:34:57;;;;;;;4.03;3.28;;;;;;;18.55;69.32;100167.59;10525818;28;20043;-72
2021/06/22 22:39:59;;;;;;;4.32;3.50;;;;;;;18.38;70.27;100173.97;10542667;28;20405;-73
2021/06/22 22:45:00;;;;;;;6.50;3.83;;;;;;;18.95;67.61;100172.22;10542586;28;20109;-72
2021/06/22 22:50:05;;;;;;;3.70;3.40;;;;;;;18.48;69.74;100170.72;10540580;28;20108;-72
2021/06/22 22:55:07;;;;;;;3.95;3.65;;;;;;;18.37;70.31;100172.28;10524719;28;20052;-72
2021/06/22 23:00:10;;;;;;;4.28;3.72;;;;;;;18.38;70.10;100162.47;10540907;28;20040;-72
2021/06/22 23:05:12;;;;;;;3.92;3.53;;;;;;;18.70;68.75;100164.94;10524401;28;20539;-73
2021/06/22 23:10:14;;;;;;;5.78;4.40;;;;;;;18.68;68.68;100159.66;10543159;28;20044;-73
2021/06/22 23:15:16;;;;;;;4.72;3.78;;;;;;;18.53;70.23;100156.19;10542369;28;20051;-73
2021/06/22 23:20:18;;;;;;;4.50;4.13;;;;;;;18.53;69.20;100145.53;10542955;28;20044;-73
2021/06/22 23:25:19;;;;;;;5.10;3.67;;;;;;;18.58;69.49;100158.56;10542858;28;20048;-72